createdAt,value
2023-04-22T00:01:24.613Z,100431.59
2023-04-22T00:03:55.438Z,100432.66
2023-04-22T00:06:24.275Z,100429.06
2023-04-22T00:08:53.213Z,100422.97
2023-04-22T00:11:23.297Z,100435.94
2023-04-22T00:13:52.212Z,100429.94
2023-04-22T00:16:21.581Z,100427.09
2023-04-22T00:18:50.576Z,100429.53
2023-04-22T00:21:19.325Z,100426.91
2023-04-22T00:23:48.261Z,100424.38
2023-04-22T00:26:16.988Z,100419.19
2023-04-22T00:28:47.258Z,100433.13
2023-04-22T00:31:15.980Z,100425.41
2023-04-22T00:33:45.430Z,100426.34
2023-04-22T00:36:14.111Z,100424.69
2023-04-22T00:38:50.471Z,100421.09
2023-04-22T00:41:20.182Z,100421.09
2023-04-22T00:43:52.484Z,100417.63
2023-04-22T00:46:21.998Z,100423.72
2023-04-22T00:48:51.846Z,100416.69
2023-04-22T00:51:20.521Z,100419.19
2023-04-22T00:53:49.568Z,100417.72
2023-04-22T00:56:19.025Z,100422.25
2023-04-22T00:58:48.116Z,100418.56
2023-04-22T01:01:18.771Z,100418.75
2023-04-22T01:03:52.778Z,100420.34
2023-04-22T01:06:23.376Z,100420.34
2023-04-22T01:08:52.637Z,100422.78
2023-04-22T01:11:21.706Z,100418.47
2023-04-22T01:13:50.905Z,100417.81
2023-04-22T01:16:21.460Z,100423.19
2023-04-22T01:18:51.035Z,100419.16
2023-04-22T01:21:20.300Z,100423.03
2023-04-22T01:23:51.121Z,100416.44
2023-04-22T01:26:19.881Z,100418.41
2023-04-22T01:28:49.386Z,100423.97
2023-04-22T01:31:18.451Z,100424.44
2023-04-22T01:33:48.451Z,100424.00
2023-04-22T01:36:17.891Z,100421.78
2023-04-22T01:38:47.248Z,100425.78
2023-04-22T01:41:17.886Z,100426.19
2023-04-22T01:43:47.690Z,100428.91
2023-04-22T01:46:18.696Z,100423.75
2023-04-22T01:48:51.475Z,100423.19
2023-04-22T01:51:21.463Z,100432.38
2023-04-22T01:53:51.024Z,100424.59
2023-04-22T01:56:21.474Z,100430.38
2023-04-22T01:58:51.478Z,100422.91
2023-04-22T02:01:20.312Z,100427.59
2023-04-22T02:03:49.368Z,100422.78
2023-04-22T02:06:18.151Z,100425.88
2023-04-22T02:08:47.159Z,100417.16
2023-04-22T02:11:16.850Z,100420.72
2023-04-22T02:13:47.193Z,100420.41
2023-04-22T02:16:16.056Z,100420.78
2023-04-22T02:18:45.089Z,100415.16
2023-04-22T02:21:13.762Z,100416.06
2023-04-22T02:23:43.334Z,100415.50
2023-04-22T02:26:12.046Z,100415.59
2023-04-22T02:28:41.627Z,100414.91
2023-04-22T02:31:11.890Z,100413.34
2023-04-22T02:33:42.855Z,100412.56
2023-04-22T02:36:12.191Z,100414.50
2023-04-22T02:38:41.169Z,100414.81
2023-04-22T02:41:09.803Z,100415.22
2023-04-22T02:43:41.670Z,100411.28
2023-04-22T02:46:16.126Z,100414.91
2023-04-22T02:48:45.253Z,100412.72
2023-04-22T02:51:13.988Z,100401.50
2023-04-22T02:53:43.130Z,100411.97
2023-04-22T02:56:12.253Z,100402.59
2023-04-22T02:58:41.287Z,100407.25
2023-04-22T03:01:10.131Z,100411.88
2023-04-22T03:03:41.299Z,100408.28
2023-04-22T03:06:13.098Z,100410.09
2023-04-22T03:08:42.097Z,100409.41
2023-04-22T03:11:10.836Z,100414.75
2023-04-22T03:13:39.750Z,100409.84
2023-04-22T03:16:09.405Z,100410.25
2023-04-22T03:18:41.495Z,100414.91
2023-04-22T03:21:12.551Z,100413.16
2023-04-22T03:23:42.844Z,100414.00
2023-04-22T03:26:12.101Z,100419.38
2023-04-22T03:28:42.137Z,100416.59
2023-04-22T03:31:10.993Z,100420.34
2023-04-22T03:33:41.571Z,100420.13
2023-04-22T03:36:21.425Z,100424.53
2023-04-22T03:38:51.085Z,100421.41
2023-04-22T03:41:20.299Z,100418.63
2023-04-22T03:43:50.883Z,100420.41
2023-04-22T03:46:20.057Z,100421.34
2023-04-22T03:48:59.947Z,100429.53
2023-04-22T03:51:31.434Z,100435.75
2023-04-22T03:54:03.385Z,100427.84
2023-04-22T03:56:35.401Z,100435.84
2023-04-22T03:59:04.313Z,100436.59
2023-04-22T04:01:34.551Z,100434.06
2023-04-22T04:04:08.172Z,100435.94
2023-04-22T04:06:43.143Z,100428.00
2023-04-22T04:09:12.138Z,100436.44
2023-04-22T04:11:40.866Z,100437.13
2023-04-22T04:14:11.706Z,100443.03
2023-04-22T04:16:51.401Z,100439.56
2023-04-22T04:19:30.475Z,100441.28
2023-04-22T04:21:59.218Z,100435.69
2023-04-22T04:24:30.388Z,100440.69
2023-04-22T04:27:06.482Z,100441.50
2023-04-22T04:29:43.330Z,100436.94
2023-04-22T04:32:18.321Z,100446.44
2023-04-22T04:34:49.113Z,100440.00
2023-04-22T04:37:19.610Z,100455.34
2023-04-22T04:40:00.425Z,100446.19
2023-04-22T04:42:39.116Z,100449.25
2023-04-22T04:45:13.729Z,100450.66
2023-04-22T04:47:42.381Z,100454.78
2023-04-22T04:50:23.662Z,100455.19
2023-04-22T04:52:53.018Z,100462.63
2023-04-22T04:55:27.609Z,100458.91
2023-04-22T04:57:57.592Z,100465.31
2023-04-22T05:00:26.804Z,100463.75
2023-04-22T05:02:56.010Z,100470.06
2023-04-22T05:05:26.594Z,100462.22
2023-04-22T05:07:55.445Z,100462.44
2023-04-22T05:10:25.205Z,100460.19
2023-04-22T05:12:54.613Z,100459.34
2023-04-22T05:15:26.505Z,100462.19
2023-04-22T05:17:55.829Z,100455.91
2023-04-22T05:20:26.530Z,100460.38
2023-04-22T05:22:55.618Z,100448.03
2023-04-22T05:25:24.638Z,100453.50
2023-04-22T05:28:02.174Z,100453.38
2023-04-22T05:30:36.994Z,100456.69
2023-04-22T05:33:05.792Z,100453.81
2023-04-22T05:35:36.774Z,100453.44
2023-04-22T05:38:05.607Z,100455.56
2023-04-22T05:40:35.521Z,100447.94
2023-04-22T05:43:06.441Z,100449.78
2023-04-22T05:45:36.262Z,100453.41
2023-04-22T05:48:07.765Z,100449.53
2023-04-22T05:50:44.269Z,100445.13
2023-04-22T05:53:12.978Z,100451.97
2023-04-22T05:55:42.359Z,100455.78
2023-04-22T05:58:11.713Z,100451.75
2023-04-22T06:00:54.063Z,100450.28
2023-04-22T06:03:48.199Z,100456.31
2023-04-22T06:06:19.060Z,100453.81
2023-04-22T06:08:49.228Z,100456.47
2023-04-22T06:11:18.302Z,100454.25
2023-04-22T06:13:47.044Z,100455.19
2023-04-22T06:16:16.286Z,100454.19
2023-04-22T06:18:45.043Z,100453.88
2023-04-22T06:21:14.548Z,100453.28
2023-04-22T06:23:45.131Z,100452.84
2023-04-22T06:26:14.337Z,100453.34
2023-04-22T06:28:43.103Z,100453.88
2023-04-22T06:31:20.418Z,100456.03
2023-04-22T06:33:49.947Z,100452.69
2023-04-22T06:36:20.199Z,100458.69
2023-04-22T06:38:56.557Z,100449.13
2023-04-22T06:41:40.796Z,100448.28
2023-04-22T06:44:25.409Z,100448.78
2023-04-22T06:47:23.285Z,100449.78
2023-04-22T06:50:08.789Z,100454.28
2023-04-22T06:52:42.389Z,100453.34
2023-04-22T06:55:13.674Z,100448.47
2023-04-22T06:57:43.146Z,100447.84
2023-04-22T07:00:13.627Z,100450.50
2023-04-22T07:02:43.716Z,100450.78
2023-04-22T07:05:12.960Z,100455.16
2023-04-22T07:07:42.457Z,100459.72
2023-04-22T07:10:18.822Z,100453.44
2023-04-22T07:13:07.778Z,100458.75
2023-04-22T07:15:36.558Z,100452.06
2023-04-22T07:18:06.040Z,100450.28
2023-04-22T07:20:34.715Z,100459.44
2023-04-22T07:23:03.642Z,100456.78
2023-04-22T07:25:33.738Z,100454.59
2023-04-22T07:28:02.945Z,100446.28
2023-04-22T07:30:31.733Z,100448.78
2023-04-22T07:33:00.755Z,100445.38
2023-04-22T07:35:29.919Z,100449.41
2023-04-22T07:37:58.926Z,100443.03
2023-04-22T07:40:27.646Z,100440.38
2023-04-22T07:42:58.258Z,100447.19
2023-04-22T07:45:27.035Z,100444.22
2023-04-22T07:47:56.066Z,100438.22
2023-04-22T07:50:24.995Z,100441.88
2023-04-22T07:52:53.991Z,100441.06
2023-04-22T07:55:22.648Z,100444.81
2023-04-22T07:57:51.609Z,100443.69
2023-04-22T08:00:21.896Z,100440.22
2023-04-22T08:02:51.108Z,100445.91
2023-04-22T08:05:20.097Z,100442.19
2023-04-22T08:07:49.189Z,100450.03
2023-04-22T08:10:18.057Z,100441.56
2023-04-22T08:12:47.245Z,100443.81
2023-04-22T08:15:16.098Z,100440.00
2023-04-22T08:17:46.663Z,100434.88
2023-04-22T08:20:16.446Z,100438.72
2023-04-22T08:22:45.744Z,100440.19
2023-04-22T08:25:14.541Z,100439.72
2023-04-22T08:27:43.588Z,100442.03
2023-04-22T08:30:13.013Z,100441.72
2023-04-22T08:32:42.003Z,100435.91
2023-04-22T08:35:12.287Z,100436.56
2023-04-22T08:37:42.188Z,100435.94
2023-04-22T08:40:11.685Z,100429.75
2023-04-22T08:42:41.754Z,100434.63
2023-04-22T08:45:12.081Z,100433.47
2023-04-22T08:47:42.507Z,100432.00
2023-04-22T08:50:13.200Z,100434.00
2023-04-22T08:52:43.837Z,100434.00
2023-04-22T08:55:12.519Z,100437.31
2023-04-22T08:57:42.753Z,100428.63
2023-04-22T09:00:13.410Z,100428.31
2023-04-22T09:02:45.950Z,100433.00
2023-04-22T09:05:17.080Z,100429.66
2023-04-22T09:07:46.854Z,100434.66
2023-04-22T09:10:16.071Z,100425.97
2023-04-22T09:12:45.079Z,100420.44
2023-04-22T09:15:14.063Z,100429.56
2023-04-22T09:17:43.671Z,100417.75
2023-04-22T09:20:14.604Z,100417.16
2023-04-22T09:22:47.405Z,100414.97
2023-04-22T09:25:25.358Z,100413.63
2023-04-22T09:27:55.942Z,100409.53
2023-04-22T09:30:27.062Z,100404.44
2023-04-22T09:32:58.975Z,100407.00
2023-04-22T09:35:31.112Z,100409.13
2023-04-22T09:38:04.416Z,100416.84
2023-04-22T09:40:34.310Z,100405.91
2023-04-22T09:43:05.642Z,100402.47
2023-04-22T09:45:36.926Z,100400.19
2023-04-22T09:48:10.768Z,100398.34
2023-04-22T09:50:44.579Z,100393.38
2023-04-22T09:53:17.855Z,100397.06
2023-04-22T09:55:49.772Z,100389.38
2023-04-22T09:58:21.507Z,100385.00
2023-04-22T10:00:54.754Z,100390.50
2023-04-22T10:03:24.931Z,100387.59
2023-04-22T10:05:53.853Z,100382.75
2023-04-22T10:08:24.322Z,100382.97
2023-04-22T10:10:53.539Z,100383.44
2023-04-22T10:13:22.693Z,100371.34
2023-04-22T10:15:54.817Z,100378.00
2023-04-22T10:18:28.984Z,100370.13
2023-04-22T10:20:59.325Z,100377.59
2023-04-22T10:23:34.663Z,100375.63
2023-04-22T10:26:06.447Z,100371.91
2023-04-22T10:28:35.621Z,100369.19
2023-04-22T10:31:08.474Z,100380.28
2023-04-22T10:33:39.518Z,100375.50
2023-04-22T10:36:12.131Z,100363.50
2023-04-22T10:39:03.834Z,100366.38
2023-04-22T10:41:35.717Z,100362.69
2023-04-22T10:44:08.940Z,100363.50
2023-04-22T10:47:02.743Z,100362.44
2023-04-22T10:49:33.066Z,100361.81
2023-04-22T10:52:04.094Z,100353.94
2023-04-22T10:55:02.520Z,100352.88
2023-04-22T10:57:43.196Z,100342.09
2023-04-22T11:00:45.653Z,100344.44
2023-04-22T11:03:29.087Z,100344.59
2023-04-22T11:06:18.698Z,100339.63
2023-04-22T11:08:49.649Z,100338.16
2023-04-22T11:11:20.770Z,100333.16
2023-04-22T11:13:51.923Z,100341.44
2023-04-22T11:16:24.158Z,100340.63
2023-04-22T11:18:53.633Z,100340.59
2023-04-22T11:21:23.906Z,100335.22
2023-04-22T11:23:54.063Z,100328.81
2023-04-22T11:26:37.721Z,100332.38
2023-04-22T11:29:06.649Z,100325.13
2023-04-22T11:31:37.371Z,100333.63
2023-04-22T11:34:06.201Z,100328.59
2023-04-22T11:36:35.720Z,100322.38
2023-04-22T11:39:14.789Z,100315.47
2023-04-22T11:41:45.373Z,100317.69
2023-04-22T11:44:16.203Z,100317.25
2023-04-22T11:46:45.924Z,100322.81
2023-04-22T11:49:16.338Z,100314.50
2023-04-22T11:51:55.867Z,100320.56
2023-04-22T11:54:35.880Z,100318.06
2023-04-22T11:57:11.952Z,100316.69
2023-04-22T11:59:41.226Z,100313.34
2023-04-22T12:02:11.513Z,100311.66
2023-04-22T12:04:41.232Z,100308.75
2023-04-22T12:07:10.614Z,100299.41
2023-04-22T12:09:41.183Z,100302.44
2023-04-22T12:12:11.919Z,100298.84
2023-04-22T12:14:40.611Z,100300.34
2023-04-22T12:17:12.243Z,100299.16
2023-04-22T12:19:41.624Z,100287.06
2023-04-22T12:22:10.853Z,100295.59
2023-04-22T12:24:46.956Z,100296.66
2023-04-22T12:27:17.260Z,100298.78
2023-04-22T12:29:54.519Z,100290.31
2023-04-22T12:32:25.114Z,100291.28
2023-04-22T12:34:54.333Z,100292.28
2023-04-22T12:37:23.240Z,100287.16
2023-04-22T12:39:51.912Z,100277.75
2023-04-22T12:42:22.241Z,100290.03
2023-04-22T12:44:51.007Z,100274.47
2023-04-22T12:47:20.350Z,100281.88
2023-04-22T12:49:49.325Z,100278.38
2023-04-22T12:52:18.316Z,100271.44
2023-04-22T12:54:47.015Z,100267.38
2023-04-22T12:57:16.058Z,100261.91
2023-04-22T12:59:47.358Z,100253.22
2023-04-22T13:02:16.349Z,100253.53
2023-04-22T13:04:45.699Z,100262.44
2023-04-22T13:07:14.739Z,100251.22
2023-04-22T13:09:43.518Z,100262.84
2023-04-22T13:12:12.627Z,100251.69
2023-04-22T13:14:41.332Z,100251.53
2023-04-22T13:17:11.699Z,100254.16
2023-04-22T13:19:41.002Z,100251.69
2023-04-22T13:22:10.153Z,100246.84
2023-04-22T13:24:38.811Z,100249.50
2023-04-22T13:27:07.854Z,100246.47
2023-04-22T13:29:36.929Z,100244.38
2023-04-22T13:32:07.178Z,100248.81
2023-04-22T13:34:37.252Z,100240.97
2023-04-22T13:37:06.252Z,100245.63
2023-04-22T13:39:34.976Z,100248.19
2023-04-22T13:42:04.850Z,100244.88
2023-04-22T13:44:33.540Z,100241.97
2023-04-22T13:47:03.023Z,100233.81
2023-04-22T13:49:31.744Z,100233.16
2023-04-22T13:52:02.284Z,100234.25
2023-04-22T13:54:31.264Z,100228.50
2023-04-22T13:57:00.647Z,100227.88
2023-04-22T13:59:29.323Z,100230.88
2023-04-22T14:01:58.309Z,100232.88
2023-04-22T14:04:27.230Z,100230.03
2023-04-22T14:06:56.526Z,100233.31
2023-04-22T14:09:26.528Z,100227.59
2023-04-22T14:11:55.482Z,100221.94
2023-04-22T14:14:24.220Z,100219.25
2023-04-22T14:16:53.299Z,100222.84
2023-04-22T14:19:24.274Z,100224.13
2023-04-22T14:21:53.320Z,100223.34
2023-04-22T14:24:23.441Z,100222.06
2023-04-22T14:26:53.875Z,100222.19
2023-04-22T14:29:23.310Z,100221.19
2023-04-22T14:31:52.443Z,100217.78
2023-04-22T14:34:21.184Z,100212.81
2023-04-22T14:36:50.248Z,100214.00
2023-04-22T14:39:18.952Z,100215.97
2023-04-22T14:41:48.086Z,100213.19
2023-04-22T14:44:18.687Z,100214.66
2023-04-22T14:46:47.686Z,100204.41
2023-04-22T14:49:16.385Z,100202.59
2023-04-22T14:51:45.509Z,100196.66
2023-04-22T14:54:14.303Z,100198.41
2023-04-22T14:56:43.317Z,100196.00
2023-04-22T14:59:12.051Z,100206.13
2023-04-22T15:01:43.235Z,100192.66
2023-04-22T15:04:13.659Z,100195.16
2023-04-22T15:06:43.880Z,100202.63
2023-04-22T15:09:13.035Z,100195.16
2023-04-22T15:11:42.076Z,100194.69
2023-04-22T15:14:10.805Z,100194.69
2023-04-22T15:16:41.416Z,100204.84
2023-04-22T15:19:10.311Z,100204.69
2023-04-22T15:21:39.955Z,100195.59
2023-04-22T15:24:08.834Z,100197.56
2023-04-22T15:26:39.758Z,100200.88
2023-04-22T15:29:08.455Z,100196.94
2023-04-22T15:31:37.501Z,100187.13
2023-04-22T15:34:07.635Z,100191.31
2023-04-22T15:36:36.686Z,100195.44
2023-04-22T15:39:06.755Z,100190.56
2023-04-22T15:41:35.748Z,100185.66
2023-04-22T15:44:07.076Z,100188.69
2023-04-22T15:46:38.086Z,100184.91
2023-04-22T15:49:08.179Z,100184.00
2023-04-22T15:51:37.040Z,100183.06
2023-04-22T15:54:05.833Z,100181.41
2023-04-22T15:56:34.761Z,100180.59
2023-04-22T15:59:03.618Z,100175.13
2023-04-22T16:01:32.821Z,100180.66
2023-04-22T16:04:01.766Z,100182.06
2023-04-22T16:06:32.481Z,100179.66
2023-04-22T16:09:01.366Z,100179.03
2023-04-22T16:11:30.511Z,100177.16
2023-04-22T16:13:59.165Z,100180.28
2023-04-22T16:16:28.378Z,100175.31
2023-04-22T16:18:57.268Z,100177.34
2023-04-22T16:21:26.331Z,100176.41
2023-04-22T16:23:56.467Z,100174.28
2023-04-22T16:26:25.489Z,100168.47
2023-04-22T16:28:54.932Z,100180.19
2023-04-22T16:31:23.983Z,100187.69
2023-04-22T16:33:53.095Z,100172.91
2023-04-22T16:36:22.511Z,100176.19
2023-04-22T16:38:51.557Z,100169.47
2023-04-22T16:41:21.921Z,100169.53
2023-04-22T16:43:50.595Z,100170.78
2023-04-22T16:46:19.739Z,100168.28
2023-04-22T16:48:48.376Z,100172.09
2023-04-22T16:51:17.443Z,100173.31
2023-04-22T16:53:46.644Z,100171.38
2023-04-22T16:56:15.583Z,100165.41
2023-04-22T16:58:45.848Z,100164.94
2023-04-22T17:01:14.837Z,100178.03
2023-04-22T17:03:43.744Z,100175.00
2023-04-22T17:06:13.049Z,100172.84
2023-04-22T17:08:41.688Z,100173.03
2023-04-22T17:11:10.771Z,100175.22
2023-04-22T17:13:39.463Z,100164.09
2023-04-22T17:16:11.045Z,100171.91
2023-04-22T17:18:39.781Z,100175.56
2023-04-22T17:21:08.755Z,100176.25
2023-04-22T17:23:38.264Z,100173.84
2023-04-22T17:26:07.322Z,100181.31
2023-04-22T17:28:36.129Z,100169.47
2023-04-22T17:31:05.128Z,100165.63
2023-04-22T17:33:36.715Z,100173.38
2023-04-22T17:36:06.307Z,100172.00
2023-04-22T17:38:34.960Z,100177.63
2023-04-22T17:41:04.248Z,100176.03
2023-04-22T17:43:33.003Z,100176.50
2023-04-22T17:46:02.036Z,100180.56
2023-04-22T17:48:30.725Z,100180.97
2023-04-22T17:51:05.149Z,100190.88
2023-04-22T17:53:34.767Z,100185.63
2023-04-22T17:56:03.742Z,100184.06
2023-04-22T17:58:32.436Z,100191.59
2023-04-22T18:01:01.404Z,100186.66
2023-04-22T18:03:30.239Z,100193.88
2023-04-22T18:06:01.414Z,100188.09
2023-04-22T18:08:30.085Z,100187.59
2023-04-22T18:10:59.705Z,100187.66
2023-04-22T18:13:28.518Z,100191.22
2023-04-22T18:15:57.566Z,100187.78
2023-04-22T18:18:26.579Z,100198.44
2023-04-22T18:20:56.011Z,100191.22
2023-04-22T18:23:26.102Z,100201.88
2023-04-22T18:25:55.861Z,100203.69
2023-04-22T18:28:24.580Z,100215.47
2023-04-22T18:30:54.029Z,100205.84
2023-04-22T18:33:22.806Z,100205.88
2023-04-22T18:35:51.723Z,100209.78
2023-04-22T18:38:20.624Z,100218.31
2023-04-22T18:40:50.988Z,100221.81
2023-04-22T18:43:19.897Z,100216.38
2023-04-22T18:45:48.815Z,100223.50
2023-04-22T18:48:18.711Z,100220.41
2023-04-22T18:50:47.658Z,100221.13
2023-04-22T18:53:16.358Z,100219.75
2023-04-22T18:55:45.551Z,100216.94
2023-04-22T18:58:15.862Z,100217.47
2023-04-22T19:00:44.872Z,100209.22
2023-04-22T19:03:13.778Z,100217.56
2023-04-22T19:05:43.393Z,100217.31
2023-04-22T19:08:12.250Z,100206.81
2023-04-22T19:10:41.403Z,100216.28
2023-04-22T19:13:22.474Z,100217.66
2023-04-22T19:16:00.000Z,100214.13
2023-04-22T19:18:28.797Z,100213.88
2023-04-22T19:20:57.923Z,100212.81
2023-04-22T19:23:26.638Z,100214.91
2023-04-22T19:25:55.708Z,100216.16
2023-04-22T19:28:24.453Z,100219.75
2023-04-22T19:30:53.624Z,100214.13
2023-04-22T19:33:23.850Z,100212.00
2023-04-22T19:35:52.881Z,100213.25
2023-04-22T19:38:23.212Z,100209.19
2023-04-22T19:40:52.308Z,100213.06
2023-04-22T19:43:21.899Z,100212.38
2023-04-22T19:45:50.834Z,100206.84
2023-04-22T19:48:20.284Z,100206.41
2023-04-22T19:50:51.103Z,100201.38
2023-04-22T19:53:21.053Z,100205.97
2023-04-22T19:55:50.453Z,100200.34
2023-04-22T19:58:19.253Z,100204.34
2023-04-22T20:00:49.415Z,100211.97
2023-04-22T20:03:19.130Z,100203.94
2023-04-22T20:05:52.460Z,100211.66
2023-04-22T20:08:27.117Z,100209.16
2023-04-22T20:10:57.006Z,100206.50
2023-04-22T20:13:26.280Z,100212.03
2023-04-22T20:15:55.708Z,100208.69
2023-04-22T20:18:26.571Z,100204.63
2023-04-22T20:20:58.586Z,100192.78
2023-04-22T20:23:29.026Z,100206.94
2023-04-22T20:25:58.796Z,100199.50
2023-04-22T20:28:44.537Z,100198.81
2023-04-22T20:31:14.476Z,100201.94
2023-04-22T20:33:43.443Z,100198.72
2023-04-22T20:36:16.205Z,100212.31
2023-04-22T20:38:48.817Z,100207.28
2023-04-22T20:41:20.177Z,100214.72
2023-04-22T20:43:49.099Z,100200.47
2023-04-22T20:46:19.220Z,100213.06
2023-04-22T20:48:48.895Z,100203.00
2023-04-22T20:51:19.594Z,100206.34
2023-04-22T20:53:48.466Z,100209.81
2023-04-22T20:56:17.594Z,100209.59
2023-04-22T20:58:46.342Z,100202.88
2023-04-22T21:01:16.624Z,100199.91
2023-04-22T21:03:52.828Z,100207.09
2023-04-22T21:06:25.220Z,100197.28
2023-04-22T21:08:56.077Z,100199.44
2023-04-22T21:11:26.134Z,100197.75
2023-04-22T21:13:55.529Z,100199.91
2023-04-22T21:16:29.735Z,100196.53
2023-04-22T21:19:01.683Z,100196.53
2023-04-22T21:21:34.856Z,100200.63
2023-04-22T21:24:05.356Z,100193.88
2023-04-22T21:26:36.703Z,100201.09
2023-04-22T21:29:06.247Z,100198.78
2023-04-22T21:31:35.316Z,100203.34
2023-04-22T21:34:06.553Z,100205.97
2023-04-22T21:36:36.917Z,100200.81
2023-04-22T21:39:05.788Z,100217.72
2023-04-22T21:41:34.745Z,100204.91
2023-04-22T21:44:03.476Z,100207.63
2023-04-22T21:46:32.432Z,100209.44
2023-04-22T21:49:01.097Z,100204.41
2023-04-22T21:51:30.088Z,100209.06
2023-04-22T21:54:00.227Z,100209.28
2023-04-22T21:56:31.342Z,100211.34
2023-04-22T21:59:00.112Z,100207.22
2023-04-22T22:01:29.089Z,100206.38
2023-04-22T22:03:58.053Z,100213.53
2023-04-22T22:06:27.173Z,100211.59
2023-04-22T22:08:55.940Z,100214.34
2023-04-22T22:11:30.999Z,100206.56
2023-04-22T22:14:00.591Z,100208.13
2023-04-22T22:16:29.731Z,100204.75
2023-04-22T22:18:58.897Z,100206.66
2023-04-22T22:21:27.815Z,100206.34
2023-04-22T22:23:57.696Z,100209.88
2023-04-22T22:26:29.202Z,100218.41
2023-04-22T22:28:57.846Z,100210.59
2023-04-22T22:31:26.905Z,100211.63
2023-04-22T22:33:55.588Z,100211.97
2023-04-22T22:36:25.437Z,100211.97
2023-04-22T22:38:54.076Z,100209.56
2023-04-22T22:41:23.021Z,100215.06
2023-04-22T22:43:53.063Z,100209.06
2023-04-22T22:46:22.439Z,100210.97
2023-04-22T22:48:51.278Z,100214.88
2023-04-22T22:51:21.183Z,100210.91
2023-04-22T22:53:49.853Z,100213.88
2023-04-22T22:56:21.007Z,100218.50
2023-04-22T22:58:49.696Z,100213.34
2023-04-22T23:01:20.187Z,100213.47
2023-04-22T23:03:49.203Z,100213.59
2023-04-22T23:06:18.544Z,100216.25
2023-04-22T23:08:47.230Z,100218.00
2023-04-22T23:11:16.158Z,100220.31
2023-04-22T23:13:44.875Z,100212.41
2023-04-22T23:16:14.018Z,100216.00
2023-04-22T23:18:45.616Z,100210.84
2023-04-22T23:21:16.085Z,100215.06
2023-04-22T23:23:45.966Z,100217.19
2023-04-22T23:26:15.489Z,100205.13
2023-04-22T23:28:44.991Z,100208.94
2023-04-22T23:31:19.835Z,100207.25
2023-04-22T23:33:51.847Z,100208.53
2023-04-22T23:36:23.951Z,100211.59
2023-04-22T23:38:52.707Z,100201.38
2023-04-22T23:41:21.733Z,100196.31
2023-04-22T23:43:50.480Z,100198.44
2023-04-22T23:46:19.655Z,100199.72
2023-04-22T23:48:49.769Z,100197.31
2023-04-22T23:51:18.741Z,100191.75
2023-04-22T23:53:47.754Z,100194.91
2023-04-22T23:56:21.118Z,100192.59
2023-04-22T23:58:50.997Z,100191.66
